createdAt,value
2018-03-07T00:02:15.953Z,28.77
2018-03-07T00:04:43.619Z,28.98
2018-03-07T00:07:11.157Z,29.83
2018-03-07T00:09:38.636Z,31.35
2018-03-07T00:12:06.125Z,30.85
2018-03-07T00:14:33.836Z,30.75
2018-03-07T00:17:01.599Z,30.65
2018-03-07T00:19:29.363Z,30.90
2018-03-07T00:21:56.828Z,30.92
2018-03-07T00:24:24.512Z,31.05
2018-03-07T00:26:51.975Z,30.25
2018-03-07T00:29:19.503Z,29.12
2018-03-07T00:31:46.964Z,31.45
2018-03-07T00:34:14.728Z,32.45
2018-03-07T00:36:42.192Z,30.70
2018-03-07T00:39:09.936Z,29.77
2018-03-07T00:41:37.404Z,31.25
2018-03-07T00:44:04.872Z,30.77
2018-03-07T00:46:32.556Z,30.58
2018-03-07T00:49:00.022Z,29.58
2018-03-07T00:51:27.484Z,29.60
2018-03-07T00:53:55.012Z,31.33
2018-03-07T00:56:22.699Z,28.02
2018-03-07T00:58:50.166Z,30.42
2018-03-07T01:01:17.691Z,29.17
2018-03-07T01:03:45.178Z,29.45
2018-03-07T01:06:12.920Z,31.48
2018-03-07T01:08:40.376Z,29.33
2018-03-07T01:11:08.133Z,29.80
2018-03-07T01:13:35.592Z,30.73
2018-03-07T01:16:03.276Z,28.58
2018-03-07T01:18:30.736Z,29.48
2018-03-07T01:20:58.273Z,30.05
2018-03-07T01:23:25.947Z,29.87
2018-03-07T01:25:53.424Z,28.45
2018-03-07T01:28:20.943Z,31.33
2018-03-07T01:30:48.719Z,28.62
2018-03-07T01:33:16.192Z,26.92
2018-03-07T01:35:43.856Z,28.90
2018-03-07T01:38:11.325Z,30.10
2018-03-07T01:40:38.788Z,31.58
2018-03-07T01:43:06.329Z,29.92
2018-03-07T01:45:33.779Z,29.25
2018-03-07T01:48:01.547Z,29.70
2018-03-07T01:50:29.228Z,32.13
2018-03-07T01:52:56.767Z,31.45
2018-03-07T01:55:24.531Z,29.65
2018-03-07T01:57:51.996Z,29.00
2018-03-07T02:00:19.752Z,29.90
2018-03-07T02:02:47.216Z,30.23
2018-03-07T02:05:14.889Z,31.33
2018-03-07T02:07:43.353Z,31.15
2018-03-07T02:10:11.037Z,30.77
2018-03-07T02:12:38.493Z,32.78
2018-03-07T02:15:05.972Z,31.10
2018-03-07T02:17:33.432Z,32.10
2018-03-07T02:20:00.947Z,30.75
2018-03-07T02:22:28.636Z,30.40
2018-03-07T02:24:56.099Z,33.03
2018-03-07T02:27:23.559Z,33.15
2018-03-07T02:29:51.023Z,30.12
2018-03-07T02:32:18.553Z,33.05
2018-03-07T02:34:46.310Z,32.13
2018-03-07T02:37:14.077Z,34.83
2018-03-07T02:39:41.540Z,34.15
2018-03-07T02:42:09.008Z,32.92
2018-03-07T02:44:36.892Z,31.10
2018-03-07T02:47:05.144Z,33.63
2018-03-07T02:49:32.608Z,36.50
2018-03-07T02:52:00.073Z,33.80
2018-03-07T02:54:27.824Z,34.33
2018-03-07T02:56:55.293Z,32.28
2018-03-07T02:59:23.043Z,32.20
2018-03-07T03:01:50.506Z,33.78
2018-03-07T03:04:17.971Z,31.27
2018-03-07T03:06:45.640Z,31.62
2018-03-07T03:09:13.179Z,32.38
2018-03-07T03:11:40.856Z,30.40
2018-03-07T03:14:08.407Z,31.55
2018-03-07T03:16:35.864Z,32.58
2018-03-07T03:19:03.542Z,30.55
2018-03-07T03:21:31.773Z,33.15
2018-03-07T03:23:59.235Z,29.48
2018-03-07T03:26:26.831Z,31.25
2018-03-07T03:28:54.384Z,32.80
2018-03-07T03:31:21.844Z,31.92
2018-03-07T03:33:49.759Z,32.78
2018-03-07T03:36:17.364Z,31.27
2018-03-07T03:38:45.139Z,30.23
2018-03-07T03:41:12.904Z,33.40
2018-03-07T03:43:40.356Z,29.23
2018-03-07T03:46:07.812Z,33.05
2018-03-07T03:48:35.497Z,33.00
2018-03-07T03:51:02.961Z,30.83
2018-03-07T03:53:30.497Z,31.35
2018-03-07T03:55:57.960Z,30.48
2018-03-07T03:58:25.720Z,31.17
2018-03-07T04:00:53.175Z,31.55
2018-03-07T04:03:20.644Z,27.50
2018-03-07T04:05:48.103Z,28.20
2018-03-07T04:08:15.862Z,31.35
2018-03-07T04:10:43.619Z,29.92
2018-03-07T04:13:11.392Z,28.42
2018-03-07T04:15:39.073Z,27.85
2018-03-07T04:18:07.292Z,29.65
2018-03-07T04:20:34.996Z,29.02
2018-03-07T04:23:02.757Z,27.62
2018-03-07T04:25:30.267Z,27.40
2018-03-07T04:27:57.975Z,30.55
2018-03-07T04:30:25.440Z,26.70
2018-03-07T04:32:53.115Z,28.58
2018-03-07T04:35:20.655Z,28.98
2018-03-07T04:37:48.420Z,27.70
2018-03-07T04:40:16.184Z,28.83
2018-03-07T04:42:43.657Z,28.25
2018-03-07T04:45:11.115Z,30.40
2018-03-07T04:47:38.820Z,29.20
2018-03-07T04:50:06.328Z,28.08
2018-03-07T04:52:34.000Z,27.33
2018-03-07T04:55:01.468Z,27.48
2018-03-07T04:57:28.924Z,29.30
2018-03-07T04:59:56.462Z,29.55
2018-03-07T05:02:23.951Z,30.62
2018-03-07T05:04:51.402Z,27.25
2018-03-07T05:07:19.148Z,27.85
2018-03-07T05:09:46.840Z,28.15
2018-03-07T05:12:14.311Z,32.38
2018-03-07T05:14:41.974Z,34.05
2018-03-07T05:17:09.430Z,30.90
2018-03-07T05:19:37.050Z,33.35
2018-03-07T05:22:04.520Z,30.48
2018-03-07T05:24:31.977Z,29.15
2018-03-07T05:26:59.439Z,27.83
2018-03-07T05:29:27.195Z,26.42
2018-03-07T05:31:54.952Z,27.33
2018-03-07T05:34:22.719Z,28.30
2018-03-07T05:36:50.184Z,27.30
2018-03-07T05:39:17.639Z,28.83
2018-03-07T05:41:45.099Z,28.70
2018-03-07T05:44:12.561Z,28.30
2018-03-07T05:46:40.686Z,26.20
2018-03-07T05:49:08.324Z,27.55
2018-03-07T05:51:35.779Z,29.98
2018-03-07T05:54:03.231Z,29.17
2018-03-07T05:56:30.704Z,29.63
2018-03-07T05:58:58.155Z,32.83
2018-03-07T06:01:25.685Z,28.90
2018-03-07T06:03:53.448Z,29.55
2018-03-07T06:06:20.912Z,31.48
2018-03-07T06:08:48.371Z,29.75
2018-03-07T06:11:15.947Z,29.45
2018-03-07T06:13:44.181Z,29.08
2018-03-07T06:16:11.897Z,31.87
2018-03-07T06:18:39.423Z,34.28
2018-03-07T06:21:06.961Z,31.77
2018-03-07T06:23:34.641Z,29.52
2018-03-07T06:26:02.108Z,31.60
2018-03-07T06:28:29.863Z,28.62
2018-03-07T06:30:57.547Z,32.10
2018-03-07T06:33:25.091Z,30.83
2018-03-07T06:35:52.554Z,31.83
2018-03-07T06:38:20.313Z,32.45
2018-03-07T06:40:48.071Z,33.63
2018-03-07T06:43:15.532Z,32.60
2018-03-07T06:45:43.300Z,32.97
2018-03-07T06:48:10.764Z,29.90
2018-03-07T06:50:38.440Z,34.53
2018-03-07T06:53:05.936Z,31.02
2018-03-07T06:55:33.400Z,32.67
2018-03-07T06:58:00.861Z,32.78
2018-03-07T07:00:28.355Z,35.63
2018-03-07T07:02:56.122Z,34.03
2018-03-07T07:05:23.612Z,33.50
2018-03-07T07:07:51.342Z,32.55
2018-03-07T07:10:18.798Z,34.67
2018-03-07T07:12:46.255Z,32.00
2018-03-07T07:15:13.716Z,34.03
2018-03-07T07:17:41.178Z,33.00
2018-03-07T07:20:08.633Z,35.55
2018-03-07T07:22:36.396Z,34.85
2018-03-07T07:25:04.126Z,35.03
2018-03-07T07:27:31.577Z,33.15
2018-03-07T07:29:59.039Z,33.25
2018-03-07T07:32:26.512Z,35.70
2018-03-07T07:34:54.009Z,35.67
2018-03-07T07:37:21.827Z,34.38
2018-03-07T07:39:49.527Z,37.28
2018-03-07T07:42:17.205Z,35.58
2018-03-07T07:44:44.663Z,39.08
2018-03-07T07:47:12.144Z,36.65
2018-03-07T07:49:39.589Z,34.45
2018-03-07T07:52:07.277Z,33.90
2018-03-07T07:54:34.890Z,33.67
2018-03-07T07:57:02.475Z,37.75
2018-03-07T07:59:30.719Z,34.50
2018-03-07T08:01:58.181Z,37.13
2018-03-07T08:04:25.656Z,38.85
2018-03-07T08:06:53.407Z,41.00
2018-03-07T08:09:20.865Z,42.00
2018-03-07T08:11:48.636Z,41.08
2018-03-07T08:14:16.139Z,42.78
2018-03-07T08:16:43.849Z,43.00
2018-03-07T08:19:11.616Z,45.63
2018-03-07T08:21:40.611Z,45.20
2018-03-07T08:24:08.380Z,41.47
2018-03-07T08:26:35.848Z,41.10
2018-03-07T08:29:03.416Z,44.17
2018-03-07T08:31:31.852Z,44.60
2018-03-07T08:33:59.438Z,43.78
2018-03-07T08:36:26.944Z,44.20
2018-03-07T08:38:54.402Z,43.78
2018-03-07T08:41:22.120Z,44.42
2018-03-07T08:43:49.886Z,41.17
2018-03-07T08:46:18.168Z,41.88
2018-03-07T08:48:45.635Z,43.50
2018-03-07T08:51:13.099Z,39.78
2018-03-07T08:53:40.610Z,39.33
2018-03-07T08:56:08.072Z,40.55
2018-03-07T08:58:35.542Z,43.30
2018-03-07T09:01:03.028Z,40.70
2018-03-07T09:03:30.687Z,40.83
2018-03-07T09:05:58.190Z,40.50
2018-03-07T09:08:25.694Z,40.17
2018-03-07T09:10:53.283Z,42.65
2018-03-07T09:13:20.760Z,37.60
2018-03-07T09:15:48.225Z,40.55
2018-03-07T09:18:15.708Z,36.80
2018-03-07T09:20:43.188Z,37.47
2018-03-07T09:23:10.711Z,40.78
2018-03-07T09:25:38.168Z,40.38
2018-03-07T09:28:05.679Z,43.27
2018-03-07T09:30:33.148Z,42.53
2018-03-07T09:33:00.892Z,39.00
2018-03-07T09:35:28.483Z,35.67
2018-03-07T09:37:56.105Z,37.97
2018-03-07T09:40:23.604Z,36.30
2018-03-07T09:42:51.253Z,34.63
2018-03-07T09:45:18.712Z,38.33
2018-03-07T09:47:46.185Z,37.47
2018-03-07T09:50:13.661Z,42.87
2018-03-07T09:52:41.180Z,40.60
2018-03-07T09:55:08.849Z,40.83
2018-03-07T09:57:36.388Z,42.17
2018-03-07T10:00:04.153Z,43.27
2018-03-07T10:02:31.648Z,41.93
2018-03-07T10:04:59.303Z,40.90
2018-03-07T10:07:26.772Z,46.10
2018-03-07T10:09:54.293Z,44.20
2018-03-07T10:12:21.788Z,44.00
2018-03-07T10:14:49.419Z,41.90
2018-03-07T10:17:16.889Z,40.27
2018-03-07T10:19:44.361Z,41.17
2018-03-07T10:22:11.880Z,39.97
2018-03-07T10:24:39.652Z,39.83
2018-03-07T10:27:07.140Z,38.00
2018-03-07T10:29:34.776Z,36.80
2018-03-07T10:32:02.236Z,35.27
2018-03-07T10:34:29.792Z,32.77
2018-03-07T10:36:57.556Z,30.30
2018-03-07T10:39:25.035Z,38.37
2018-03-07T10:41:52.652Z,39.70
2018-03-07T10:44:20.153Z,37.43
2018-03-07T10:46:47.728Z,38.37
2018-03-07T10:49:15.381Z,33.13
2018-03-07T10:51:42.868Z,32.70
2018-03-07T10:54:10.332Z,30.63
2018-03-07T10:56:37.840Z,29.73
2018-03-07T10:59:05.600Z,27.73
2018-03-07T11:01:33.069Z,26.40
2018-03-07T11:04:00.561Z,28.10
2018-03-07T11:06:28.046Z,29.43
2018-03-07T11:08:55.668Z,25.00
2018-03-07T11:11:23.146Z,26.57
2018-03-07T11:13:50.642Z,24.20
2018-03-07T11:16:18.117Z,26.17
2018-03-07T11:18:45.592Z,24.40
2018-03-07T11:21:13.253Z,23.70
2018-03-07T11:23:40.740Z,23.50
2018-03-07T11:26:08.217Z,20.40
2018-03-07T11:28:35.728Z,14.80
2018-03-07T11:31:03.472Z,12.40
2018-03-07T11:33:30.956Z,11.60
2018-03-07T11:35:58.695Z,11.67
2018-03-07T11:38:26.458Z,11.38
2018-03-07T11:40:53.920Z,12.00
2018-03-07T11:43:21.668Z,10.67
2018-03-07T11:45:49.148Z,11.23
2018-03-07T11:48:16.835Z,11.52
2018-03-07T11:50:44.361Z,12.70
2018-03-07T11:53:11.840Z,11.60
2018-03-07T11:55:39.529Z,10.50
2018-03-07T11:58:06.993Z,9.52
2018-03-07T12:00:34.460Z,9.63
2018-03-07T12:03:01.941Z,10.40
2018-03-07T12:05:29.711Z,9.67
2018-03-07T12:07:57.181Z,9.77
2018-03-07T12:10:24.652Z,10.27
2018-03-07T12:12:52.405Z,10.87
2018-03-07T12:15:19.949Z,12.73
2018-03-07T12:17:47.543Z,14.30
2018-03-07T12:20:15.094Z,14.20
2018-03-07T12:22:42.754Z,13.57
2018-03-07T12:25:10.225Z,15.33
2018-03-07T12:27:37.692Z,15.43
2018-03-07T12:30:05.169Z,15.43
2018-03-07T12:32:32.685Z,17.00
2018-03-07T12:35:00.445Z,17.23
2018-03-07T12:37:27.914Z,14.90
2018-03-07T12:39:55.384Z,18.97
2018-03-07T12:42:23.131Z,16.10
2018-03-07T12:44:50.610Z,14.40
2018-03-07T12:47:18.364Z,17.33
2018-03-07T12:49:46.123Z,13.10
2018-03-07T12:52:13.885Z,13.97
2018-03-07T12:54:41.643Z,13.10
2018-03-07T12:57:09.115Z,14.53
2018-03-07T12:59:36.576Z,16.00
2018-03-07T13:02:04.060Z,14.57
2018-03-07T13:04:31.784Z,17.50
2018-03-07T13:06:59.459Z,16.20
2018-03-07T13:09:26.958Z,19.57
2018-03-07T13:11:54.434Z,20.00
2018-03-07T13:14:21.904Z,20.57
2018-03-07T13:16:49.392Z,20.13
2018-03-07T13:19:17.250Z,20.33
2018-03-07T13:21:44.719Z,21.90
2018-03-07T13:24:12.964Z,24.93
2018-03-07T13:26:40.449Z,17.63
2018-03-07T13:29:07.911Z,17.43
2018-03-07T13:31:35.434Z,17.80
2018-03-07T13:34:03.060Z,17.33
2018-03-07T13:36:30.540Z,13.30
2018-03-07T13:38:58.007Z,11.43
2018-03-07T13:41:25.484Z,11.10
2018-03-07T13:43:53.277Z,7.63
2018-03-07T13:46:20.952Z,6.10
2018-03-07T13:48:48.405Z,5.00
2018-03-07T13:51:15.945Z,7.63
2018-03-07T13:53:43.713Z,5.30
2018-03-07T13:56:11.381Z,6.30
2018-03-07T13:58:38.985Z,7.10
2018-03-07T14:01:06.449Z,7.20
2018-03-07T14:03:34.070Z,6.83
2018-03-07T14:06:01.614Z,5.90
2018-03-07T14:08:29.079Z,6.90
2018-03-07T14:10:56.838Z,5.73
2018-03-07T14:13:24.300Z,7.50
2018-03-07T14:15:52.056Z,5.80
2018-03-07T14:18:19.522Z,7.53
2018-03-07T14:20:46.983Z,8.00
2018-03-07T14:23:14.444Z,6.70
2018-03-07T14:25:41.923Z,6.50
2018-03-07T14:28:09.614Z,5.73
2018-03-07T14:30:37.116Z,5.63
2018-03-07T14:33:04.584Z,7.07
2018-03-07T14:35:32.088Z,8.10
2018-03-07T14:37:59.561Z,7.23
2018-03-07T14:40:27.256Z,7.90
2018-03-07T14:42:54.948Z,8.33
2018-03-07T14:45:22.428Z,8.60
2018-03-07T14:47:49.887Z,9.80
2018-03-07T14:50:17.375Z,11.00
2018-03-07T14:52:44.840Z,15.30
2018-03-07T14:55:12.317Z,12.10
2018-03-07T14:57:40.588Z,9.57
2018-03-07T15:00:08.050Z,10.20
2018-03-07T15:02:35.516Z,10.17
2018-03-07T15:05:03.072Z,10.10
2018-03-07T15:07:30.533Z,9.13
2018-03-07T15:09:58.196Z,9.40
2018-03-07T15:12:25.668Z,10.20
2018-03-07T15:14:53.200Z,9.63
2018-03-07T15:17:20.880Z,9.27
2018-03-07T15:19:48.355Z,9.70
2018-03-07T15:22:15.839Z,10.40
2018-03-07T15:24:43.342Z,10.30
2018-03-07T15:27:10.800Z,8.33
2018-03-07T15:29:38.269Z,8.57
2018-03-07T15:32:06.021Z,9.07
2018-03-07T15:34:33.499Z,7.50
2018-03-07T15:37:01.240Z,8.02
2018-03-07T15:39:28.924Z,6.73
2018-03-07T15:41:56.393Z,7.70
2018-03-07T15:44:23.851Z,7.37
2018-03-07T15:46:51.325Z,7.07
2018-03-07T15:49:18.805Z,6.20
2018-03-07T15:51:46.309Z,6.87
2018-03-07T15:54:13.744Z,6.43
2018-03-07T15:56:41.525Z,7.60
2018-03-07T15:59:08.991Z,7.45
2018-03-07T16:01:36.466Z,8.05
2018-03-07T16:04:03.932Z,8.10
2018-03-07T16:06:31.393Z,7.53
2018-03-07T16:08:58.863Z,9.88
2018-03-07T16:11:26.550Z,10.15
2018-03-07T16:13:53.976Z,9.00
2018-03-07T16:16:21.449Z,11.05
2018-03-07T16:18:48.924Z,11.10
2018-03-07T16:21:16.399Z,10.88
2018-03-07T16:23:43.871Z,13.52
2018-03-07T16:26:11.337Z,11.45
2018-03-07T16:28:38.820Z,13.32
2018-03-07T16:31:06.489Z,11.10
2018-03-07T16:33:33.956Z,12.40
2018-03-07T16:36:01.431Z,11.05
2018-03-07T16:38:28.899Z,11.48
2018-03-07T16:40:56.374Z,12.37
2018-03-07T16:43:23.835Z,12.20
2018-03-07T16:45:51.600Z,10.82
2018-03-07T16:48:19.240Z,8.65
2018-03-07T16:50:46.847Z,8.30
2018-03-07T16:53:14.601Z,8.18
2018-03-07T16:55:42.356Z,7.28
2018-03-07T16:58:09.848Z,8.35
2018-03-07T17:00:37.506Z,7.37
2018-03-07T17:03:05.927Z,8.15
2018-03-07T17:05:33.426Z,8.18
2018-03-07T17:08:01.093Z,7.45
2018-03-07T17:10:28.664Z,12.48
2018-03-07T17:12:56.147Z,5.30
2018-03-07T17:15:23.612Z,6.90
2018-03-07T17:17:51.068Z,4.75
2018-03-07T17:20:18.740Z,3.90
2018-03-07T17:22:46.236Z,3.95
2018-03-07T17:25:13.938Z,4.70
2018-03-07T17:27:41.403Z,3.45
2018-03-07T17:30:08.875Z,4.57
2018-03-07T17:32:36.364Z,4.30
2018-03-07T17:35:04.136Z,3.97
2018-03-07T17:37:31.900Z,4.03
2018-03-07T17:39:59.348Z,4.72
2018-03-07T17:42:26.812Z,4.53
2018-03-07T17:44:54.489Z,3.92
2018-03-07T17:47:22.040Z,3.70
2018-03-07T17:49:49.839Z,4.37
2018-03-07T17:52:17.571Z,4.62
2018-03-07T17:54:45.164Z,4.70
2018-03-07T17:57:12.703Z,4.87
2018-03-07T17:59:40.252Z,4.40
2018-03-07T18:02:07.919Z,4.70
2018-03-07T18:04:35.387Z,4.82
2018-03-07T18:07:02.936Z,4.45
2018-03-07T18:09:30.693Z,4.40
2018-03-07T18:11:58.460Z,4.43
2018-03-07T18:14:26.232Z,5.07
2018-03-07T18:16:53.992Z,4.30
2018-03-07T18:19:21.454Z,5.28
2018-03-07T18:21:49.223Z,4.80
2018-03-07T18:24:16.980Z,4.45
2018-03-07T18:26:44.440Z,5.95
2018-03-07T18:29:12.125Z,5.35
2018-03-07T18:31:39.660Z,5.55
2018-03-07T18:34:07.131Z,11.32
2018-03-07T18:36:34.760Z,4.90
2018-03-07T18:39:02.248Z,6.18
2018-03-07T18:41:29.959Z,4.57
2018-03-07T18:43:57.563Z,5.68
2018-03-07T18:46:25.025Z,9.98
2018-03-07T18:48:52.788Z,5.55
2018-03-07T18:51:20.267Z,9.70
2018-03-07T18:53:47.916Z,7.20
2018-03-07T18:56:15.627Z,5.43
2018-03-07T18:58:43.234Z,4.50
2018-03-07T19:01:10.680Z,4.47
2018-03-07T19:03:38.147Z,4.15
2018-03-07T19:06:05.916Z,4.28
2018-03-07T19:08:33.679Z,4.43
2018-03-07T19:11:01.308Z,3.10
2018-03-07T19:13:28.759Z,2.97
2018-03-07T19:15:56.236Z,3.30
2018-03-07T19:18:23.821Z,3.67
2018-03-07T19:20:51.276Z,4.20
2018-03-07T19:23:19.040Z,4.35
2018-03-07T19:25:46.514Z,4.72
2018-03-07T19:28:14.263Z,6.03
2018-03-07T19:30:41.732Z,5.53
2018-03-07T19:33:09.205Z,11.70
2018-03-07T19:35:36.658Z,7.75
2018-03-07T19:38:04.411Z,7.85
2018-03-07T19:40:31.893Z,8.35
2018-03-07T19:42:59.629Z,7.70
2018-03-07T19:45:27.216Z,9.18
2018-03-07T19:47:55.447Z,9.02
2018-03-07T19:50:22.909Z,9.32
2018-03-07T19:52:50.380Z,8.05
2018-03-07T19:55:17.844Z,8.32
2018-03-07T19:57:45.312Z,8.82
2018-03-07T20:00:12.828Z,8.02
2018-03-07T20:02:40.224Z,7.28
2018-03-07T20:05:07.980Z,8.52
2018-03-07T20:07:35.740Z,9.60
2018-03-07T20:10:03.199Z,10.15
2018-03-07T20:12:30.675Z,10.50
2018-03-07T20:14:58.423Z,9.73
2018-03-07T20:17:25.892Z,10.27
2018-03-07T20:19:53.351Z,10.38
2018-03-07T20:22:20.812Z,10.35
2018-03-07T20:24:48.566Z,11.20
2018-03-07T20:27:16.327Z,9.85
2018-03-07T20:29:43.810Z,11.15
2018-03-07T20:32:11.272Z,12.10
2018-03-07T20:34:38.914Z,10.70
2018-03-07T20:37:06.463Z,11.30
2018-03-07T20:39:33.937Z,11.57
2018-03-07T20:42:01.396Z,11.25
2018-03-07T20:44:29.153Z,11.55
2018-03-07T20:46:56.604Z,9.60
2018-03-07T20:49:24.066Z,10.10
2018-03-07T20:51:51.531Z,10.57
2018-03-07T20:54:19.107Z,9.68
2018-03-07T20:56:47.331Z,10.52
2018-03-07T20:59:14.790Z,9.98
2018-03-07T21:01:42.255Z,9.57
2018-03-07T21:04:09.713Z,9.60
2018-03-07T21:06:37.192Z,9.40
2018-03-07T21:09:04.655Z,9.13
2018-03-07T21:11:32.112Z,9.95
2018-03-07T21:13:59.876Z,10.48
2018-03-07T21:16:27.635Z,11.50
2018-03-07T21:18:55.096Z,13.73
2018-03-07T21:21:22.563Z,12.75
2018-03-07T21:23:50.239Z,15.20
2018-03-07T21:26:17.777Z,16.80
2018-03-07T21:28:45.260Z,15.18
2018-03-07T21:31:12.723Z,17.77
2018-03-07T21:33:40.465Z,20.02
2018-03-07T21:36:07.947Z,19.33
2018-03-07T21:38:35.591Z,19.37
2018-03-07T21:41:03.055Z,18.40
2018-03-07T21:43:30.532Z,19.42
2018-03-07T21:45:58.008Z,18.37
2018-03-07T21:48:25.514Z,15.48
2018-03-07T21:50:53.276Z,15.23
2018-03-07T21:53:20.761Z,15.15
2018-03-07T21:55:48.412Z,14.55
2018-03-07T21:58:15.956Z,15.18
2018-03-07T22:00:43.724Z,14.27
2018-03-07T22:03:11.194Z,14.25
2018-03-07T22:05:38.944Z,14.20
2018-03-07T22:08:06.417Z,13.98
2018-03-07T22:10:33.872Z,13.40
2018-03-07T22:13:01.340Z,13.95
2018-03-07T22:15:29.083Z,15.63
2018-03-07T22:17:56.550Z,15.35
2018-03-07T22:20:24.307Z,14.70
2018-03-07T22:22:51.767Z,16.15
2018-03-07T22:25:19.228Z,13.73
2018-03-07T22:27:46.692Z,13.98
2018-03-07T22:30:14.452Z,12.60
2018-03-07T22:32:41.912Z,11.27
2018-03-07T22:35:09.371Z,11.07
2018-03-07T22:37:36.827Z,10.88
2018-03-07T22:40:04.505Z,9.45
2018-03-07T22:42:32.049Z,9.10
2018-03-07T22:44:59.516Z,6.82
2018-03-07T22:47:27.269Z,7.93
2018-03-07T22:49:54.726Z,10.15
2018-03-07T22:52:22.416Z,10.15
2018-03-07T22:54:49.868Z,9.38
2018-03-07T22:57:17.331Z,10.30
2018-03-07T22:59:44.859Z,12.63
2018-03-07T23:02:12.332Z,14.05
2018-03-07T23:04:39.997Z,13.25
2018-03-07T23:07:07.543Z,13.85
2018-03-07T23:09:35.008Z,14.00
2018-03-07T23:12:02.771Z,14.68
2018-03-07T23:14:30.242Z,16.25
2018-03-07T23:16:57.907Z,15.07
2018-03-07T23:19:26.291Z,13.82
2018-03-07T23:21:53.832Z,13.73
2018-03-07T23:24:21.591Z,13.80
2018-03-07T23:26:49.059Z,14.15
2018-03-07T23:29:16.817Z,15.40
2018-03-07T23:31:44.512Z,15.30
2018-03-07T23:34:11.968Z,13.82
2018-03-07T23:36:39.504Z,14.05
2018-03-07T23:39:06.981Z,13.50
2018-03-07T23:41:34.444Z,13.13
2018-03-07T23:44:02.117Z,12.23
2018-03-07T23:46:29.567Z,15.15
2018-03-07T23:48:57.093Z,13.70
2018-03-07T23:51:24.560Z,12.50
2018-03-07T23:53:52.021Z,13.90
2018-03-07T23:56:19.696Z,14.07
2018-03-07T23:58:47.152Z,14.15
